createdAt,value
2018-03-28T00:00:50.745Z,6.99
2018-03-28T00:03:20.192Z,7.01
2018-03-28T00:05:49.996Z,7.13
2018-03-28T00:08:19.257Z,7.03
2018-03-28T00:10:48.515Z,6.98
2018-03-28T00:13:17.671Z,6.94
2018-03-28T00:15:47.124Z,7.00
2018-03-28T00:18:16.261Z,6.99
2018-03-28T00:20:45.371Z,7.03
2018-03-28T00:23:14.489Z,7.04
2018-03-28T00:25:43.857Z,7.08
2018-03-28T00:28:13.217Z,7.01
2018-03-28T00:30:42.321Z,7.06
2018-03-28T00:33:11.474Z,7.05
2018-03-28T00:35:40.563Z,7.06
2018-03-28T00:38:09.755Z,7.00
2018-03-28T00:40:38.903Z,7.16
2018-03-28T00:43:08.210Z,7.16
2018-03-28T00:45:38.198Z,7.13
2018-03-28T00:48:07.368Z,7.06
2018-03-28T00:50:36.411Z,7.20
2018-03-28T00:53:05.702Z,7.16
2018-03-28T00:55:34.778Z,7.17
2018-03-28T00:58:03.941Z,7.13
2018-03-28T01:00:33.095Z,7.11
2018-03-28T01:03:02.141Z,7.15
2018-03-28T01:05:31.569Z,7.13
2018-03-28T01:08:00.573Z,7.06
2018-03-28T01:10:29.730Z,7.02
2018-03-28T01:12:59.042Z,6.97
2018-03-28T01:15:28.175Z,6.86
2018-03-28T01:17:57.356Z,6.81
2018-03-28T01:20:26.602Z,6.86
2018-03-28T01:22:55.743Z,6.85
2018-03-28T01:25:24.941Z,6.82
2018-03-28T01:27:54.283Z,6.80
2018-03-28T01:30:23.425Z,6.77
2018-03-28T01:32:52.626Z,6.71
2018-03-28T01:35:21.657Z,6.74
2018-03-28T01:37:50.827Z,6.71
2018-03-28T01:40:20.068Z,6.67
2018-03-28T01:42:49.835Z,6.65
2018-03-28T01:45:18.817Z,6.73
2018-03-28T01:47:47.780Z,6.69
2018-03-28T01:50:16.909Z,6.55
2018-03-28T01:52:45.901Z,6.59
2018-03-28T01:55:15.456Z,6.67
2018-03-28T01:57:44.449Z,6.63
2018-03-28T02:00:13.657Z,6.61
2018-03-28T02:02:42.819Z,6.63
2018-03-28T02:05:11.776Z,6.62
2018-03-28T02:07:40.885Z,6.64
2018-03-28T02:10:10.126Z,6.73
2018-03-28T02:12:39.547Z,6.69
2018-03-28T02:15:08.785Z,6.74
2018-03-28T02:17:38.237Z,6.72
2018-03-28T02:20:08.220Z,6.82
2018-03-28T02:22:37.449Z,6.84
2018-03-28T02:25:06.664Z,6.67
2018-03-28T02:27:35.742Z,6.73
2018-03-28T02:30:05.077Z,6.81
2018-03-28T02:32:34.249Z,6.72
2018-03-28T02:35:03.459Z,6.61
2018-03-28T02:37:32.711Z,6.56
2018-03-28T02:40:01.924Z,6.59
2018-03-28T02:42:31.210Z,6.90
2018-03-28T02:45:00.301Z,6.68
2018-03-28T02:47:29.678Z,6.72
2018-03-28T02:49:58.822Z,7.05
2018-03-28T02:52:28.034Z,7.22
2018-03-28T02:54:57.342Z,7.01
2018-03-28T02:57:26.605Z,6.80
2018-03-28T02:59:55.739Z,6.76
2018-03-28T03:02:24.734Z,6.55
2018-03-28T03:04:53.883Z,6.71
2018-03-28T03:07:22.871Z,6.77
2018-03-28T03:09:51.993Z,6.75
2018-03-28T03:12:21.015Z,6.69
2018-03-28T03:14:50.217Z,6.60
2018-03-28T03:17:19.181Z,6.67
2018-03-28T03:19:48.409Z,6.61
2018-03-28T03:22:17.648Z,7.05
2018-03-28T03:24:46.895Z,6.54
2018-03-28T03:27:15.949Z,6.48
2018-03-28T03:29:45.081Z,6.46
2018-03-28T03:32:14.083Z,6.60
2018-03-28T03:34:43.082Z,6.66
2018-03-28T03:37:12.350Z,6.85
2018-03-28T03:39:41.497Z,6.73
2018-03-28T03:42:10.783Z,6.86
2018-03-28T03:44:39.850Z,6.79
2018-03-28T03:47:09.082Z,6.57
2018-03-28T03:49:38.146Z,6.91
2018-03-28T03:52:07.139Z,7.11
2018-03-28T03:54:36.249Z,7.22
2018-03-28T03:57:05.586Z,6.93
2018-03-28T03:59:34.681Z,6.99
2018-03-28T04:02:04.467Z,7.18
2018-03-28T04:04:33.477Z,7.14
2018-03-28T04:07:02.569Z,7.37
2018-03-28T04:09:32.374Z,7.46
2018-03-28T04:12:01.545Z,7.33
2018-03-28T04:14:30.523Z,7.07
2018-03-28T04:16:59.541Z,7.09
2018-03-28T04:19:28.759Z,7.24
2018-03-28T04:21:57.677Z,7.56
2018-03-28T04:24:26.858Z,7.52
2018-03-28T04:26:55.848Z,7.29
2018-03-28T04:29:25.289Z,6.81
2018-03-28T04:31:54.340Z,6.88
2018-03-28T04:34:23.279Z,6.83
2018-03-28T04:36:52.327Z,6.88
2018-03-28T04:39:21.523Z,6.75
2018-03-28T04:41:50.594Z,6.43
2018-03-28T04:44:19.789Z,6.68
2018-03-28T04:46:49.223Z,6.79
2018-03-28T04:49:18.216Z,6.86
2018-03-28T04:51:47.247Z,6.71
2018-03-28T04:54:16.205Z,6.63
2018-03-28T04:56:45.473Z,6.76
2018-03-28T04:59:14.685Z,6.61
2018-03-28T05:01:44.047Z,6.87
2018-03-28T05:04:13.401Z,6.63
2018-03-28T05:06:42.437Z,6.82
2018-03-28T05:09:12.044Z,6.79
2018-03-28T05:11:41.105Z,6.79
2018-03-28T05:14:10.255Z,6.65
2018-03-28T05:16:39.604Z,6.80
2018-03-28T05:19:08.650Z,6.98
2018-03-28T05:21:37.598Z,7.20
2018-03-28T05:24:06.754Z,7.08
2018-03-28T05:26:35.921Z,6.93
2018-03-28T05:29:05.280Z,7.20
2018-03-28T05:31:34.342Z,7.43
2018-03-28T05:34:03.500Z,7.61
2018-03-28T05:36:32.782Z,7.38
2018-03-28T05:39:01.867Z,7.57
2018-03-28T05:41:31.113Z,7.46
2018-03-28T05:44:00.210Z,7.21
2018-03-28T05:46:29.260Z,7.40
2018-03-28T05:48:58.455Z,7.26
2018-03-28T05:51:27.684Z,7.36
2018-03-28T05:53:56.730Z,7.63
2018-03-28T05:56:26.033Z,7.97
2018-03-28T05:58:55.294Z,7.61
2018-03-28T06:01:26.085Z,7.39
2018-03-28T06:03:55.443Z,7.78
2018-03-28T06:06:24.650Z,7.70
2018-03-28T06:08:53.995Z,7.89
2018-03-28T06:11:23.076Z,8.21
2018-03-28T06:13:52.294Z,7.94
2018-03-28T06:16:21.488Z,8.33
2018-03-28T06:18:50.898Z,8.52
2018-03-28T06:21:20.262Z,8.04
2018-03-28T06:23:49.542Z,7.83
2018-03-28T06:26:18.672Z,8.01
2018-03-28T06:28:48.101Z,8.02
2018-03-28T06:31:17.264Z,7.94
2018-03-28T06:33:46.544Z,7.88
2018-03-28T06:36:15.800Z,7.80
2018-03-28T06:38:44.828Z,8.06
2018-03-28T06:41:14.085Z,8.83
2018-03-28T06:43:43.383Z,8.94
2018-03-28T06:46:12.479Z,8.90
2018-03-28T06:48:41.618Z,8.66
2018-03-28T06:51:11.041Z,9.03
2018-03-28T06:53:40.383Z,8.92
2018-03-28T06:56:09.683Z,8.19
2018-03-28T06:58:38.772Z,8.29
2018-03-28T07:01:08.025Z,8.63
2018-03-28T07:03:37.038Z,8.99
2018-03-28T07:06:06.110Z,9.37
2018-03-28T07:08:35.332Z,9.45
2018-03-28T07:11:04.668Z,9.27
2018-03-28T07:13:33.909Z,9.45
2018-03-28T07:16:03.264Z,9.44
2018-03-28T07:18:32.447Z,9.60
2018-03-28T07:21:01.782Z,9.62
2018-03-28T07:23:30.962Z,9.53
2018-03-28T07:26:00.167Z,9.36
2018-03-28T07:28:29.874Z,8.89
2018-03-28T07:30:58.846Z,8.93
2018-03-28T07:33:28.372Z,9.40
2018-03-28T07:35:57.679Z,9.67
2018-03-28T07:38:26.878Z,9.63
2018-03-28T07:40:56.046Z,9.64
2018-03-28T07:43:25.268Z,9.81
2018-03-28T07:45:54.419Z,9.34
2018-03-28T07:48:23.562Z,9.60
2018-03-28T07:50:52.702Z,9.83
2018-03-28T07:53:22.166Z,10.48
2018-03-28T07:55:51.686Z,9.76
2018-03-28T07:58:20.810Z,10.45
2018-03-28T08:00:50.165Z,10.45
2018-03-28T08:03:19.409Z,11.15
2018-03-28T08:05:48.575Z,10.43
2018-03-28T08:08:18.591Z,9.39
2018-03-28T08:10:50.948Z,9.14
2018-03-28T08:13:20.559Z,9.29
2018-03-28T08:15:49.931Z,10.45
2018-03-28T08:18:19.109Z,10.46
2018-03-28T08:20:48.366Z,10.20
2018-03-28T08:23:17.673Z,10.74
2018-03-28T08:25:47.213Z,9.81
2018-03-28T08:28:16.477Z,10.32
2018-03-28T08:30:45.665Z,9.99
2018-03-28T08:33:14.822Z,10.03
2018-03-28T08:35:44.110Z,9.51
2018-03-28T08:38:13.277Z,9.70
2018-03-28T08:40:42.426Z,10.05
2018-03-28T08:43:11.605Z,10.68
2018-03-28T08:45:40.971Z,11.06
2018-03-28T08:48:10.119Z,10.44
2018-03-28T08:50:39.207Z,10.17
2018-03-28T08:53:08.433Z,10.65
2018-03-28T08:55:37.598Z,10.88
2018-03-28T08:58:06.852Z,10.08
2018-03-28T09:00:36.774Z,9.56
2018-03-28T09:03:05.907Z,9.64
2018-03-28T09:05:35.330Z,9.30
2018-03-28T09:08:04.542Z,9.30
2018-03-28T09:10:33.619Z,9.83
2018-03-28T09:13:02.765Z,10.07
2018-03-28T09:15:31.963Z,9.79
2018-03-28T09:18:01.060Z,9.89
2018-03-28T09:20:30.349Z,9.43
2018-03-28T09:22:59.574Z,9.54
2018-03-28T09:25:28.647Z,9.70
2018-03-28T09:27:58.107Z,9.53
2018-03-28T09:30:27.325Z,9.24
2018-03-28T09:32:56.556Z,9.16
2018-03-28T09:35:25.650Z,9.43
2018-03-28T09:37:54.844Z,9.07
2018-03-28T09:40:23.989Z,8.79
2018-03-28T09:42:53.117Z,9.32
2018-03-28T09:45:22.342Z,9.58
2018-03-28T09:47:52.267Z,9.26
2018-03-28T09:50:21.352Z,9.76
2018-03-28T09:52:50.304Z,9.98
2018-03-28T09:55:19.492Z,9.68
2018-03-28T09:57:48.597Z,9.56
2018-03-28T10:00:23.683Z,10.10
2018-03-28T10:02:58.547Z,10.37
2018-03-28T10:05:33.512Z,10.14
2018-03-28T10:08:02.744Z,9.95
2018-03-28T10:10:31.827Z,10.07
2018-03-28T10:13:01.011Z,10.26
2018-03-28T10:15:30.354Z,10.03
2018-03-28T10:17:59.775Z,10.16
2018-03-28T10:20:28.990Z,9.84
2018-03-28T10:22:58.550Z,10.13
2018-03-28T10:25:27.829Z,9.79
2018-03-28T10:27:57.045Z,9.41
2018-03-28T10:30:26.122Z,9.52
2018-03-28T10:32:55.323Z,9.58
2018-03-28T10:35:24.582Z,10.46
2018-03-28T10:37:53.749Z,9.92
2018-03-28T10:40:23.234Z,10.13
2018-03-28T10:42:52.485Z,10.24
2018-03-28T10:45:22.356Z,10.26
2018-03-28T10:47:51.521Z,9.88
2018-03-28T10:50:20.677Z,10.06
2018-03-28T10:52:49.998Z,9.46
2018-03-28T10:55:19.046Z,9.25
2018-03-28T10:57:48.517Z,9.07
2018-03-28T11:00:17.806Z,8.93
2018-03-28T11:02:47.103Z,8.98
2018-03-28T11:05:16.287Z,8.93
2018-03-28T11:07:45.505Z,9.00
2018-03-28T11:10:14.881Z,9.25
2018-03-28T11:12:44.261Z,9.24
2018-03-28T11:15:13.615Z,9.00
2018-03-28T11:17:42.833Z,8.81
2018-03-28T11:20:12.577Z,9.04
2018-03-28T11:22:41.838Z,9.05
2018-03-28T11:25:10.883Z,8.90
2018-03-28T11:27:40.199Z,8.68
2018-03-28T11:30:09.299Z,8.64
2018-03-28T11:32:38.459Z,8.63
2018-03-28T11:35:07.649Z,8.81
2018-03-28T11:37:36.893Z,8.71
2018-03-28T11:40:06.154Z,8.54
2018-03-28T11:42:35.291Z,8.52
2018-03-28T11:45:04.489Z,8.75
2018-03-28T11:47:33.859Z,8.63
2018-03-28T11:50:03.044Z,8.20
2018-03-28T11:52:32.145Z,8.48
2018-03-28T11:55:01.532Z,8.33
2018-03-28T11:57:30.690Z,8.31
2018-03-28T11:59:59.767Z,8.24
2018-03-28T12:02:29.231Z,8.18
2018-03-28T12:04:58.445Z,8.09
2018-03-28T12:07:27.544Z,8.26
2018-03-28T12:09:56.685Z,7.94
2018-03-28T12:12:26.040Z,8.00
2018-03-28T12:14:55.251Z,8.40
2018-03-28T12:17:24.487Z,7.97
2018-03-28T12:19:53.750Z,7.98
2018-03-28T12:22:22.823Z,8.10
2018-03-28T12:24:51.813Z,8.74
2018-03-28T12:27:21.054Z,8.46
2018-03-28T12:29:50.170Z,8.01
2018-03-28T12:32:19.439Z,7.91
2018-03-28T12:34:48.989Z,7.95
2018-03-28T12:37:18.096Z,8.12
2018-03-28T12:39:47.162Z,8.01
2018-03-28T12:42:16.515Z,7.57
2018-03-28T12:44:45.721Z,7.68
2018-03-28T12:47:14.740Z,7.60
2018-03-28T12:49:44.150Z,7.48
2018-03-28T12:52:13.224Z,7.56
2018-03-28T12:54:42.475Z,7.35
2018-03-28T12:57:11.578Z,7.49
2018-03-28T12:59:40.647Z,7.59
2018-03-28T13:02:09.803Z,7.83
2018-03-28T13:04:39.150Z,7.53
2018-03-28T13:07:08.585Z,7.53
2018-03-28T13:09:38.666Z,7.67
2018-03-28T13:12:07.917Z,7.41
2018-03-28T13:14:37.213Z,7.66
2018-03-28T13:17:06.395Z,7.29
2018-03-28T13:19:35.605Z,7.74
2018-03-28T13:22:04.668Z,7.66
2018-03-28T13:24:34.020Z,7.39
2018-03-28T13:27:03.428Z,7.35
2018-03-28T13:29:32.558Z,7.52
2018-03-28T13:32:02.612Z,7.42
2018-03-28T13:34:31.917Z,7.64
2018-03-28T13:37:01.014Z,7.71
2018-03-28T13:39:30.327Z,7.81
2018-03-28T13:41:59.479Z,7.47
2018-03-28T13:44:28.678Z,7.50
2018-03-28T13:46:58.036Z,7.43
2018-03-28T13:49:27.093Z,7.34
2018-03-28T13:51:56.422Z,7.47
2018-03-28T13:54:25.601Z,7.55
2018-03-28T13:56:54.662Z,7.69
2018-03-28T13:59:24.124Z,7.62
2018-03-28T14:01:54.094Z,7.51
2018-03-28T14:04:23.278Z,7.99
2018-03-28T14:06:52.488Z,7.76
2018-03-28T14:09:21.733Z,7.39
2018-03-28T14:11:51.235Z,7.43
2018-03-28T14:14:20.647Z,7.20
2018-03-28T14:16:49.793Z,7.29
2018-03-28T14:19:18.831Z,7.37
2018-03-28T14:21:48.016Z,7.12
2018-03-28T14:24:17.450Z,7.18
2018-03-28T14:26:46.754Z,7.09
2018-03-28T14:29:15.811Z,7.04
2018-03-28T14:31:45.280Z,7.14
2018-03-28T14:34:15.125Z,7.16
2018-03-28T14:36:44.221Z,7.11
2018-03-28T14:39:13.344Z,7.15
2018-03-28T14:41:42.482Z,6.99
2018-03-28T14:44:11.739Z,6.90
2018-03-28T14:46:41.044Z,6.81
2018-03-28T14:49:10.077Z,6.93
2018-03-28T14:51:39.591Z,7.14
2018-03-28T14:54:08.687Z,7.00
2018-03-28T14:56:37.932Z,6.87
2018-03-28T14:59:07.042Z,7.05
2018-03-28T15:01:36.134Z,6.97
2018-03-28T15:04:05.379Z,6.98
2018-03-28T15:06:34.736Z,6.87
2018-03-28T15:09:03.989Z,6.90
2018-03-28T15:11:33.479Z,6.69
2018-03-28T15:14:02.574Z,6.70
2018-03-28T15:16:31.826Z,6.51
2018-03-28T15:19:01.031Z,6.54
2018-03-28T15:21:30.192Z,6.65
2018-03-28T15:23:59.401Z,6.53
2018-03-28T15:26:28.467Z,6.52
2018-03-28T15:28:58.098Z,6.49
2018-03-28T15:31:27.526Z,6.62
2018-03-28T15:33:56.535Z,6.68
2018-03-28T15:36:25.721Z,6.74
2018-03-28T15:38:55.008Z,6.61
2018-03-28T15:41:24.110Z,6.72
2018-03-28T15:43:53.267Z,6.66
2018-03-28T15:46:22.369Z,6.75
2018-03-28T15:48:51.557Z,6.73
2018-03-28T15:51:20.632Z,6.81
2018-03-28T15:53:49.667Z,6.83
2018-03-28T15:56:18.640Z,6.93
2018-03-28T15:58:47.730Z,7.06
2018-03-28T16:01:16.981Z,6.95
2018-03-28T16:03:46.241Z,6.90
2018-03-28T16:06:15.381Z,6.89
2018-03-28T16:08:44.606Z,6.91
2018-03-28T16:11:13.787Z,6.89
2018-03-28T16:13:42.914Z,6.88
2018-03-28T16:16:12.221Z,6.87
2018-03-28T16:18:41.413Z,6.88
2018-03-28T16:21:10.630Z,6.88
2018-03-28T16:23:39.623Z,6.92
2018-03-28T16:26:08.768Z,6.89
2018-03-28T16:28:37.946Z,6.85
2018-03-28T16:31:07.002Z,6.85
2018-03-28T16:33:36.153Z,6.89
2018-03-28T16:36:05.244Z,6.92
2018-03-28T16:38:34.390Z,6.92
2018-03-28T16:41:03.607Z,6.85
2018-03-28T16:43:32.703Z,6.86
2018-03-28T16:46:01.896Z,6.91
2018-03-28T16:48:31.038Z,6.88
2018-03-28T16:51:00.102Z,6.96
2018-03-28T16:53:29.332Z,6.99
2018-03-28T16:55:58.481Z,7.00
2018-03-28T16:58:28.298Z,6.94
2018-03-28T17:00:57.579Z,6.88
2018-03-28T17:03:27.130Z,6.81
2018-03-28T17:05:56.443Z,6.82
2018-03-28T17:08:25.529Z,6.86
2018-03-28T17:10:54.795Z,6.81
2018-03-28T17:13:24.199Z,6.77
2018-03-28T17:15:53.567Z,6.78
2018-03-28T17:18:22.743Z,6.79
2018-03-28T17:20:51.895Z,6.71
2018-03-28T17:23:21.046Z,6.73
2018-03-28T17:25:50.485Z,6.75
2018-03-28T17:28:19.732Z,6.75
2018-03-28T17:30:48.838Z,6.77
2018-03-28T17:33:17.981Z,6.62
2018-03-28T17:35:47.217Z,6.57
2018-03-28T17:38:16.447Z,6.60
2018-03-28T17:40:45.641Z,6.66
2018-03-28T17:43:14.679Z,6.62
2018-03-28T17:45:44.136Z,6.62
2018-03-28T17:48:13.333Z,6.52
2018-03-28T17:50:42.677Z,6.58
2018-03-28T17:53:11.877Z,6.47
2018-03-28T17:55:41.128Z,6.72
2018-03-28T17:58:10.381Z,6.65
2018-03-28T18:00:39.739Z,6.64
2018-03-28T18:03:09.036Z,7.24
2018-03-28T18:05:38.202Z,6.90
2018-03-28T18:08:07.441Z,6.96
2018-03-28T18:10:37.312Z,6.77
2018-03-28T18:13:06.743Z,6.72
2018-03-28T18:15:35.933Z,6.72
2018-03-28T18:18:05.045Z,6.76
2018-03-28T18:20:34.603Z,6.85
2018-03-28T18:23:03.681Z,7.13
2018-03-28T18:25:32.975Z,7.01
2018-03-28T18:28:02.349Z,6.83
2018-03-28T18:30:31.745Z,6.81
2018-03-28T18:33:01.048Z,6.73
2018-03-28T18:35:30.238Z,6.75
2018-03-28T18:37:59.295Z,6.73
2018-03-28T18:40:28.375Z,6.78
2018-03-28T18:42:57.508Z,6.72
2018-03-28T18:45:26.721Z,6.70
2018-03-28T18:47:56.524Z,6.67
2018-03-28T18:50:25.918Z,6.69
2018-03-28T18:52:55.050Z,6.77
2018-03-28T18:55:24.366Z,6.83
2018-03-28T18:57:53.524Z,6.79
2018-03-28T19:00:22.769Z,6.81
2018-03-28T19:02:52.138Z,6.84
2018-03-28T19:05:21.391Z,6.90
2018-03-28T19:07:50.752Z,6.97
2018-03-28T19:10:20.810Z,7.08
2018-03-28T19:12:50.194Z,7.06
2018-03-28T19:15:19.357Z,7.21
2018-03-28T19:17:48.461Z,6.94
2018-03-28T19:20:17.710Z,6.91
2018-03-28T19:22:46.906Z,6.81
2018-03-28T19:25:16.083Z,6.75
2018-03-28T19:27:45.676Z,6.62
2018-03-28T19:30:14.805Z,6.60
2018-03-28T19:32:43.936Z,6.59
2018-03-28T19:35:13.763Z,6.61
2018-03-28T19:37:43.185Z,6.60
2018-03-28T19:40:12.317Z,6.57
2018-03-28T19:42:41.563Z,6.58
2018-03-28T19:45:10.586Z,6.50
2018-03-28T19:47:39.742Z,6.52
2018-03-28T19:50:09.050Z,6.51
2018-03-28T19:52:38.149Z,6.51
2018-03-28T19:55:07.443Z,6.63
2018-03-28T19:57:36.660Z,6.70
2018-03-28T20:00:05.882Z,6.49
2018-03-28T20:02:35.315Z,6.48
2018-03-28T20:05:04.714Z,6.47
2018-03-28T20:07:33.878Z,6.43
2018-03-28T20:10:03.066Z,6.48
2018-03-28T20:12:32.444Z,6.42
2018-03-28T20:15:01.511Z,6.41
2018-03-28T20:17:30.566Z,6.48
2018-03-28T20:19:59.792Z,6.53
2018-03-28T20:22:29.055Z,6.45
2018-03-28T20:24:58.281Z,6.57
2018-03-28T20:27:27.462Z,7.55
2018-03-28T20:29:56.439Z,6.82
2018-03-28T20:32:25.534Z,6.94
2018-03-28T20:34:54.741Z,6.56
2018-03-28T20:37:23.873Z,6.42
2018-03-28T20:39:53.082Z,6.34
2018-03-28T20:42:22.353Z,6.29
2018-03-28T20:44:51.473Z,6.33
2018-03-28T20:47:20.870Z,6.32
2018-03-28T20:49:50.021Z,6.29
2018-03-28T20:52:19.009Z,6.21
2018-03-28T20:54:48.266Z,6.27
2018-03-28T20:57:17.429Z,6.24
2018-03-28T20:59:46.764Z,6.16
2018-03-28T21:02:16.029Z,6.20
2018-03-28T21:04:45.422Z,6.23
2018-03-28T21:07:14.564Z,6.16
2018-03-28T21:09:43.859Z,6.23
2018-03-28T21:12:13.171Z,6.19
2018-03-28T21:14:42.345Z,6.27
2018-03-28T21:17:11.755Z,6.20
2018-03-28T21:19:41.434Z,6.18
2018-03-28T21:22:10.613Z,6.28
2018-03-28T21:24:40.561Z,6.40
2018-03-28T21:27:09.835Z,6.34
2018-03-28T21:29:38.938Z,6.38
2018-03-28T21:32:08.049Z,6.38
2018-03-28T21:34:37.184Z,6.45
2018-03-28T21:37:06.346Z,6.54
2018-03-28T21:39:35.679Z,6.32
2018-03-28T21:42:04.813Z,6.28
2018-03-28T21:44:34.127Z,6.24
2018-03-28T21:47:03.460Z,6.26
2018-03-28T21:49:32.617Z,6.19
2018-03-28T21:52:02.175Z,6.37
2018-03-28T21:54:31.363Z,6.11
2018-03-28T21:57:00.474Z,6.13
2018-03-28T21:59:29.717Z,6.11
2018-03-28T22:01:59.041Z,6.37
2018-03-28T22:04:28.242Z,6.61
2018-03-28T22:06:57.469Z,6.34
2018-03-28T22:09:26.625Z,6.36
2018-03-28T22:11:55.837Z,6.23
2018-03-28T22:14:25.150Z,6.49
2018-03-28T22:16:55.719Z,6.29
2018-03-28T22:19:24.847Z,6.22
2018-03-28T22:21:53.958Z,6.21
2018-03-28T22:24:23.159Z,6.17
2018-03-28T22:26:52.332Z,6.15
2018-03-28T22:29:21.538Z,6.23
2018-03-28T22:31:50.639Z,6.20
2018-03-28T22:34:19.748Z,6.44
2018-03-28T22:36:49.077Z,6.25
2018-03-28T22:39:18.153Z,6.74
2018-03-28T22:41:47.289Z,6.52
2018-03-28T22:44:16.334Z,6.36
2018-03-28T22:46:45.343Z,6.26
2018-03-28T22:49:14.406Z,6.16
2018-03-28T22:51:43.400Z,6.25
2018-03-28T22:54:12.496Z,6.33
2018-03-28T22:56:41.505Z,6.43
2018-03-28T22:59:11.234Z,6.74
2018-03-28T23:01:40.281Z,6.67
2018-03-28T23:04:09.392Z,6.50
2018-03-28T23:06:38.517Z,6.38
2018-03-28T23:09:07.617Z,6.33
2018-03-28T23:11:36.691Z,6.42
2018-03-28T23:14:05.875Z,6.46
2018-03-28T23:16:34.967Z,6.40
2018-03-28T23:19:04.120Z,6.41
2018-03-28T23:21:33.058Z,6.43
2018-03-28T23:24:02.301Z,6.39
2018-03-28T23:26:31.344Z,6.32
2018-03-28T23:29:00.350Z,6.32
2018-03-28T23:31:29.486Z,6.40
2018-03-28T23:33:58.429Z,6.33
2018-03-28T23:36:27.450Z,6.37
2018-03-28T23:38:56.579Z,6.31
2018-03-28T23:41:25.774Z,6.35
2018-03-28T23:43:55.422Z,6.34
2018-03-28T23:46:24.678Z,6.35
2018-03-28T23:48:53.614Z,6.59
2018-03-28T23:51:22.627Z,6.47
2018-03-28T23:53:51.861Z,6.39
2018-03-28T23:56:20.915Z,6.32
2018-03-28T23:58:49.950Z,6.34
